Time;durP1;ratioP1;P1;durP2;ratioP2;P2;SDS_P1;SDS_P2;PMS_P1;PMS_P2;Temp;Humidity;BMP_temperature;BMP_pressure;BME280_temperature;BME280_humidity;BME280_pressure;Samples;Min_cycle;Max_cycle;Signal;HPM_P1;HPM_P2
2021/12/10 00:00:30;;;;;;;47.40;24.98;;;4.30;99.90;;;;;;5099601;28;20541;-52
2021/12/10 00:02:56;;;;;;;50.90;26.10;;;4.30;99.90;;;;;;5098533;28;20083;-51
2021/12/10 00:05:28;;;;;;;50.15;25.55;;;4.30;99.90;;;;;;5100388;28;20044;-49
2021/12/10 00:07:55;;;;;;;42.70;23.63;;;4.30;99.90;;;;;;5099400;28;20051;-50
2021/12/10 00:10:26;;;;;;;47.33;24.27;;;4.30;99.90;;;;;;5100027;28;20047;-51
2021/12/10 00:12:52;;;;;;;41.83;22.63;;;4.30;99.90;;;;;;5099065;28;20040;-53
2021/12/10 00:15:30;;;;;;;46.08;23.38;;;4.30;99.90;;;;;;5099482;28;20451;-52
2021/12/10 00:17:58;;;;;;;42.05;22.63;;;4.30;99.90;;;;;;5099982;28;20417;-48
2021/12/10 00:20:26;;;;;;;41.60;21.75;;;4.30;99.90;;;;;;5099112;28;20052;-53
2021/12/10 00:22:59;;;;;;;38.25;20.55;;;4.30;99.90;;;;;;5099750;28;20048;-52
2021/12/10 00:25:35;;;;;;;39.05;22.55;;;4.30;99.90;;;;;;5097480;28;20044;-52
2021/12/10 00:28:14;;;;;;;37.10;20.38;;;4.30;99.90;;;;;;5099127;28;20082;-51
2021/12/10 00:30:56;;;;;;;42.75;20.40;;;4.30;99.90;;;;;;5082367;28;20103;-51
2021/12/10 00:33:24;;;;;;;40.03;20.90;;;4.30;99.90;;;;;;5082829;28;20052;-51
2021/12/10 00:35:53;;;;;;;37.92;20.00;;;4.30;99.90;;;;;;5099518;28;20079;-52
2021/12/10 00:38:19;;;;;;;35.00;18.75;;;4.30;99.90;;;;;;5097328;28;20036;-52
2021/12/10 00:40:45;;;;;;;37.63;19.33;;;4.30;99.90;;;;;;5099212;28;20108;-49
2021/12/10 00:43:11;;;;;;;37.53;19.08;;;4.30;99.90;;;;;;5098826;28;20036;-52
2021/12/10 00:45:37;;;;;;;32.85;17.60;;;4.30;99.90;;;;;;5098708;28;20051;-50
2021/12/10 00:48:04;;;;;;;34.95;18.92;;;4.40;99.90;;;;;;5099403;28;20052;-50
2021/12/10 00:50:35;;;;;;;42.20;19.50;;;4.30;99.90;;;;;;5097226;28;20044;-50
2021/12/10 00:53:01;;;;;;;37.50;19.88;;;4.30;99.90;;;;;;5079184;28;20085;-52
2021/12/10 00:55:27;;;;;;;37.28;18.48;;;4.40;99.90;;;;;;5077969;28;20045;-52
2021/12/10 00:57:55;;;;;;;36.45;17.95;;;4.40;99.90;;;;;;5078622;28;20036;-52
2021/12/10 01:00:38;;;;;;;34.97;17.77;;;4.40;99.90;;;;;;5078286;28;20037;-50
2021/12/10 01:03:06;;;;;;;35.38;17.38;;;4.30;99.90;;;;;;5078250;28;20037;-50
2021/12/10 01:05:33;;;;;;;37.65;18.95;;;4.40;99.90;;;;;;5078878;28;20048;-54
2021/12/10 01:07:58;;;;;;;36.40;18.33;;;4.40;99.90;;;;;;5076697;28;20053;-50
2021/12/10 01:10:29;;;;;;;35.78;19.55;;;4.40;99.90;;;;;;5078523;28;20070;-50
2021/12/10 01:12:58;;;;;;;35.90;19.00;;;4.40;99.90;;;;;;5077785;28;20048;-51
2021/12/10 01:23:46;;;;;;;33.60;18.45;;;4.40;99.90;;;;;;5078330;28;20054;-51
2021/12/10 01:28:50;;;;;;;33.05;18.45;;;4.30;99.90;;;;;;5078090;28;20056;-50
2021/12/10 01:31:16;;;;;;;;;;;4.30;99.90;;;;;;5079097;28;20048;-50
2021/12/10 01:33:43;;;;;;;32.80;17.02;;;4.30;99.90;;;;;;5077764;28;19924;-50
2021/12/10 01:36:09;;;;;;;34.03;17.77;;;4.30;99.90;;;;;;5077938;28;20099;-50
2021/12/10 01:38:40;;;;;;;32.35;18.17;;;4.30;99.90;;;;;;5078648;28;20071;-51
2021/12/10 01:41:09;;;;;;;35.85;18.20;;;4.30;99.90;;;;;;5080564;28;20098;-52
2021/12/10 01:43:38;;;;;;;35.28;19.17;;;4.30;99.90;;;;;;5080807;28;20048;-50
2021/12/10 01:46:10;;;;;;;31.27;16.92;;;4.30;99.90;;;;;;5081761;28;20085;-52
2021/12/10 01:48:41;;;;;;;;;;;4.30;99.90;;;;;;5083089;28;20139;-53
2021/12/10 01:51:08;;;;;;;31.65;17.33;;;4.20;99.90;;;;;;5087810;28;19920;-51
2021/12/10 01:53:38;;;;;;;38.35;18.02;;;4.20;99.90;;;;;;5100885;28;20101;-50
2021/12/10 01:56:08;;;;;;;39.40;16.15;;;4.10;99.90;;;;;;5102198;28;20043;-52
2021/12/10 01:58:34;;;;;;;33.10;15.82;;;4.00;99.90;;;;;;5102115;28;20082;-52
2021/12/10 02:01:10;;;;;;;32.53;16.35;;;3.90;99.90;;;;;;5101405;28;20048;-51
2021/12/10 02:03:37;;;;;;;33.78;17.83;;;3.90;99.90;;;;;;5101909;28;20071;-50
2021/12/10 02:06:04;;;;;;;31.92;17.38;;;3.80;99.90;;;;;;5102283;28;20048;-52
2021/12/10 02:08:29;;;;;;;28.23;16.45;;;3.90;99.90;;;;;;5101736;28;20099;-52
2021/12/10 02:10:55;;;;;;;30.90;18.25;;;3.80;99.90;;;;;;5101842;28;20044;-53
2021/12/10 02:13:21;;;;;;;37.15;17.55;;;3.80;99.90;;;;;;5101810;28;20066;-52
2021/12/10 02:15:46;;;;;;;32.70;16.88;;;3.80;99.90;;;;;;5101519;28;20093;-53
2021/12/10 02:18:13;;;;;;;33.40;16.83;;;3.80;99.90;;;;;;5102323;28;20173;-52
2021/12/10 02:20:52;;;;;;;37.00;18.92;;;3.80;99.90;;;;;;5101570;28;20107;-50
2021/12/10 02:23:19;;;;;;;31.42;17.38;;;3.80;99.90;;;;;;5101946;28;20161;-52
2021/12/10 02:25:45;;;;;;;31.83;17.13;;;3.80;99.90;;;;;;5101206;28;20103;-53
2021/12/10 02:28:12;;;;;;;36.83;18.80;;;3.90;99.90;;;;;;5101774;28;20485;-50
2021/12/10 02:30:39;;;;;;;32.70;17.45;;;3.90;99.90;;;;;;5101707;28;20157;-52
2021/12/10 02:33:06;;;;;;;31.50;17.08;;;3.90;99.90;;;;;;5101462;28;20067;-50
2021/12/10 02:35:32;;;;;;;28.40;15.93;;;3.90;99.90;;;;;;5101795;28;20059;-50
2021/12/10 02:37:59;;;;;;;27.77;14.70;;;4.00;99.90;;;;;;5099718;28;20680;-51
2021/12/10 02:40:27;;;;;;;33.30;14.57;;;4.00;99.90;;;;;;5101483;28;20115;-49
2021/12/10 02:42:55;;;;;;;24.75;14.00;;;4.00;99.90;;;;;;5100732;28;20062;-52
2021/12/10 02:45:24;;;;;;;27.27;14.13;;;4.00;99.90;;;;;;5101418;28;20075;-52
2021/12/10 02:47:50;;;;;;;24.48;12.80;;;4.10;99.90;;;;;;5101329;28;20076;-50
2021/12/10 02:50:20;;;;;;;26.73;13.55;;;4.10;99.90;;;;;;5099255;28;20109;-51
2021/12/10 02:52:46;;;;;;;27.45;13.30;;;4.10;99.90;;;;;;5081206;28;20040;-50
2021/12/10 02:55:15;;;;;;;26.30;13.60;;;4.10;99.90;;;;;;5080604;28;20043;-52
2021/12/10 02:57:50;;;;;;;28.48;14.13;;;4.10;99.90;;;;;;5080727;28;20096;-52
2021/12/10 03:00:20;;;;;;;27.08;13.48;;;4.10;99.90;;;;;;5080596;28;20079;-49
2021/12/10 03:02:46;;;;;;;23.23;13.70;;;4.10;99.90;;;;;;5080581;28;20048;-53
2021/12/10 03:05:12;;;;;;;27.58;13.00;;;4.10;99.90;;;;;;5081219;28;20036;-50
2021/12/10 03:07:40;;;;;;;30.75;14.43;;;4.10;99.90;;;;;;5080335;28;20044;-53
2021/12/10 03:10:10;;;;;;;25.27;13.32;;;4.10;99.90;;;;;;5080690;28;20040;-53
2021/12/10 03:12:36;;;;;;;29.83;13.60;;;4.00;99.90;;;;;;5079821;28;20037;-49
2021/12/10 03:15:06;;;;;;;26.38;13.75;;;4.00;99.90;;;;;;5080581;28;20041;-49
2021/12/10 03:17:32;;;;;;;27.35;13.57;;;4.10;99.90;;;;;;5080311;28;20055;-49
2021/12/10 03:19:59;;;;;;;34.25;13.02;;;4.00;99.90;;;;;;5080314;28;20044;-51
2021/12/10 03:22:26;;;;;;;27.85;15.45;;;4.10;99.90;;;;;;5080839;28;20124;-52
2021/12/10 03:24:53;;;;;;;29.80;14.82;;;4.10;99.90;;;;;;5080074;28;20048;-50
2021/12/10 03:27:20;;;;;;;31.45;14.68;;;4.10;99.90;;;;;;5080209;28;20602;-52
2021/12/10 03:29:47;;;;;;;29.42;13.55;;;4.10;99.90;;;;;;5079710;28;20032;-50
2021/12/10 03:32:23;;;;;;;27.00;14.07;;;4.10;99.90;;;;;;5080131;28;20040;-50
2021/12/10 03:34:49;;;;;;;27.38;13.90;;;4.10;99.90;;;;;;5080245;28;20123;-50
2021/12/10 03:37:18;;;;;;;30.38;14.20;;;4.10;99.90;;;;;;5079661;28;20059;-51
2021/12/10 03:39:44;;;;;;;26.23;14.10;;;4.10;99.90;;;;;;5080312;28;20672;-51
2021/12/10 03:42:10;;;;;;;28.52;14.75;;;4.10;99.90;;;;;;5079657;28;20381;-52
2021/12/10 03:44:36;;;;;;;31.40;14.13;;;4.10;99.90;;;;;;5079814;28;20058;-51
2021/12/10 03:47:05;;;;;;;25.70;14.18;;;4.10;99.90;;;;;;5079164;28;20088;-52
2021/12/10 03:49:31;;;;;;;26.65;14.95;;;4.10;99.90;;;;;;5079943;28;20044;-52
2021/12/10 03:51:58;;;;;;;29.52;15.65;;;4.10;99.90;;;;;;5093109;28;20036;-52
2021/12/10 03:54:24;;;;;;;30.70;14.93;;;4.10;99.90;;;;;;5099948;28;20665;-52
2021/12/10 03:56:50;;;;;;;28.67;16.17;;;4.10;99.90;;;;;;5100311;28;20052;-49
2021/12/10 03:59:19;;;;;;;28.90;15.30;;;4.00;99.90;;;;;;5099766;28;20040;-50
2021/12/10 04:01:49;;;;;;;30.67;14.90;;;4.10;99.90;;;;;;5099073;28;20511;-53
2021/12/10 04:04:37;;;;;;;28.50;14.10;;;4.10;99.90;;;;;;5099243;28;20036;-51
2021/12/10 04:07:07;;;;;;;27.90;13.48;;;4.10;99.90;;;;;;5099468;28;20036;-51
2021/12/10 04:09:33;;;;;;;24.42;13.85;;;4.10;99.90;;;;;;5100120;28;20098;-48
2021/12/10 04:11:59;;;;;;;29.10;13.55;;;4.00;99.90;;;;;;5099162;28;20040;-51
2021/12/10 04:14:25;;;;;;;28.33;14.48;;;4.10;99.90;;;;;;5099705;28;20051;-51
2021/12/10 04:16:56;;;;;;;27.63;16.20;;;4.00;99.90;;;;;;5098762;28;20044;-53
2021/12/10 04:19:26;;;;;;;24.50;15.25;;;4.00;99.90;;;;;;5099563;28;20054;-52
2021/12/10 04:21:55;;;;;;;23.88;14.10;;;4.00;99.90;;;;;;5099451;28;20036;-48
2021/12/10 04:24:24;;;;;;;23.33;14.30;;;4.10;99.90;;;;;;5099154;28;20516;-50
2021/12/10 04:26:51;;;;;;;27.48;14.27;;;4.00;99.90;;;;;;5099675;28;20066;-48
2021/12/10 04:29:21;;;;;;;29.30;13.75;;;4.00;99.90;;;;;;5097418;28;20065;-49
2021/12/10 04:31:50;;;;;;;24.48;14.15;;;4.00;99.90;;;;;;5099511;28;20077;-50
2021/12/10 04:34:16;;;;;;;28.02;14.20;;;4.00;99.90;;;;;;5098794;28;20481;-48
2021/12/10 04:36:42;;;;;;;28.02;14.77;;;4.00;99.90;;;;;;5099192;28;20603;-51
2021/12/10 04:39:08;;;;;;;27.45;15.65;;;4.00;99.90;;;;;;5099309;28;20036;-53
2021/12/10 04:41:34;;;;;;;26.73;15.15;;;4.00;99.90;;;;;;5097660;28;20048;-50
2021/12/10 04:44:00;;;;;;;31.52;14.88;;;3.90;99.90;;;;;;5098964;28;20047;-51
2021/12/10 04:46:26;;;;;;;28.92;15.13;;;3.90;99.90;;;;;;5098633;28;20097;-52
2021/12/10 04:49:00;;;;;;;30.83;15.93;;;3.90;99.90;;;;;;5099086;28;20063;-49
2021/12/10 04:51:31;;;;;;;27.42;16.38;;;3.90;99.90;;;;;;5089481;28;20094;-49
2021/12/10 04:53:58;;;;;;;26.10;17.13;;;3.80;99.90;;;;;;5077177;28;20063;-49
2021/12/10 04:56:25;;;;;;;26.75;16.40;;;3.80;99.90;;;;;;5078727;28;20102;-52
2021/12/10 04:58:51;;;;;;;30.20;17.35;;;3.80;99.90;;;;;;5078271;28;20088;-51
2021/12/10 05:01:17;;;;;;;30.10;18.83;;;3.70;99.90;;;;;;5078673;28;20119;-49
2021/12/10 05:03:43;;;;;;;29.02;17.95;;;3.70;99.90;;;;;;5078001;28;20539;-52
2021/12/10 05:06:09;;;;;;;26.13;16.88;;;3.70;99.90;;;;;;5078302;28;20050;-52
2021/12/10 05:08:36;;;;;;;26.05;17.67;;;3.60;99.90;;;;;;5078093;28;20048;-49
2021/12/10 05:11:05;;;;;;;29.10;16.38;;;3.50;99.90;;;;;;5078560;28;20094;-49
2021/12/10 05:13:31;;;;;;;26.63;16.50;;;3.50;99.90;;;;;;5078538;28;20197;-49
2021/12/10 05:15:58;;;;;;;29.90;17.80;;;3.40;99.90;;;;;;5078191;28;20067;-48
2021/12/10 05:18:35;;;;;;;29.83;16.75;;;3.40;99.90;;;;;;5078443;28;20063;-49
2021/12/10 05:21:02;;;;;;;31.40;17.13;;;3.30;99.90;;;;;;5078087;28;20100;-51
2021/12/10 05:23:28;;;;;;;25.88;17.70;;;3.30;99.90;;;;;;5078064;28;20041;-51
2021/12/10 05:25:54;;;;;;;29.35;17.80;;;3.20;99.90;;;;;;5078280;28;20052;-49
2021/12/10 05:28:20;;;;;;;33.83;18.73;;;3.20;99.90;;;;;;5076540;28;20033;-50
2021/12/10 05:30:47;;;;;;;29.67;17.83;;;3.10;99.90;;;;;;5078554;28;20493;-50
2021/12/10 05:33:17;;;;;;;31.45;18.33;;;3.10;99.90;;;;;;5077964;28;20040;-51
2021/12/10 05:35:45;;;;;;;31.33;19.58;;;3.10;99.90;;;;;;5078383;28;20045;-50
2021/12/10 05:38:11;;;;;;;30.42;18.67;;;3.00;99.90;;;;;;5077314;28;20063;-49
2021/12/10 05:40:37;;;;;;;33.92;20.30;;;3.00;99.90;;;;;;5078160;28;20045;-51
2021/12/10 05:43:03;;;;;;;37.90;21.48;;;3.00;99.90;;;;;;5076237;28;20528;-51
2021/12/10 05:45:30;;;;;;;31.92;19.95;;;3.00;99.90;;;;;;5077924;28;20086;-52
2021/12/10 05:47:57;;;;;;;29.55;19.40;;;2.90;99.90;;;;;;5078345;28;20060;-52
2021/12/10 05:50:25;;;;;;;31.02;18.67;;;2.90;99.90;;;;;;5077743;28;20048;-50
2021/12/10 05:52:52;;;;;;;31.85;18.85;;;2.90;99.90;;;;;;5098443;28;20044;-52
2021/12/10 05:55:18;;;;;;;31.88;18.25;;;2.90;99.90;;;;;;5097724;28;20078;-52
2021/12/10 05:57:44;;;;;;;34.55;18.95;;;2.90;99.90;;;;;;5098122;28;20103;-53
2021/12/10 06:00:19;;;;;;;31.27;19.02;;;2.90;99.90;;;;;;5097850;28;20040;-49
2021/12/10 06:02:45;;;;;;;29.27;17.27;;;2.90;99.90;;;;;;5097879;28;20036;-52
2021/12/10 06:05:11;;;;;;;32.10;19.80;;;2.90;99.90;;;;;;5098192;28;20039;-50
2021/12/10 06:07:38;;;;;;;30.10;18.90;;;2.90;99.90;;;;;;5097741;28;20067;-52
2021/12/10 06:10:06;;;;;;;28.13;18.05;;;2.90;99.90;;;;;;5098199;28;20051;-49
2021/12/10 06:12:32;;;;;;;32.15;19.08;;;2.80;99.90;;;;;;5097309;28;20088;-51
2021/12/10 06:14:57;;;;;;;31.63;19.75;;;2.80;99.90;;;;;;5097846;28;20058;-52
2021/12/10 06:17:24;;;;;;;30.27;18.42;;;2.80;99.90;;;;;;5097885;28;20098;-52
2021/12/10 06:19:49;;;;;;;35.13;20.92;;;2.80;99.90;;;;;;5097714;28;20048;-49
2021/12/10 06:22:15;;;;;;;35.55;19.60;;;2.80;99.90;;;;;;5096996;28;20048;-52
2021/12/10 06:24:41;;;;;;;30.92;19.30;;;2.70;99.90;;;;;;5098519;28;20496;-51
2021/12/10 06:27:07;;;;;;;36.47;20.27;;;2.70;99.90;;;;;;5102079;28;20036;-51
2021/12/10 06:29:32;;;;;;;32.28;18.70;;;2.70;99.90;;;;;;5101240;28;20504;-49
2021/12/10 06:31:58;;;;;;;41.45;21.75;;;2.70;99.90;;;;;;5101548;28;20066;-52
2021/12/10 06:34:24;;;;;;;31.00;19.13;;;2.70;99.90;;;;;;5101130;28;20127;-52
2021/12/10 06:36:50;;;;;;;32.83;20.23;;;2.60;99.90;;;;;;5101409;28;20036;-53
2021/12/10 06:39:20;;;;;;;34.65;19.85;;;2.60;99.90;;;;;;5101799;28;20054;-53
2021/12/10 06:41:49;;;;;;;30.52;19.00;;;2.70;99.90;;;;;;5101155;28;20067;-53
2021/12/10 06:44:15;;;;;;;31.95;18.42;;;2.70;99.90;;;;;;5100063;28;20043;-52
2021/12/10 06:46:41;;;;;;;34.75;19.42;;;2.60;99.90;;;;;;5100457;28;20052;-51
2021/12/10 06:49:07;;;;;;;32.85;19.88;;;2.60;99.90;;;;;;5101446;28;20043;-52
2021/12/10 06:51:34;;;;;;;31.10;20.23;;;2.70;99.90;;;;;;5091232;28;20062;-49
2021/12/10 06:53:59;;;;;;;31.40;18.98;;;2.60;99.90;;;;;;5079408;28;20048;-52
2021/12/10 06:56:26;;;;;;;31.15;19.83;;;2.60;99.90;;;;;;5081132;28;20044;-50
2021/12/10 06:58:52;;;;;;;31.38;18.70;;;2.60;99.90;;;;;;5080738;28;20044;-48
2021/12/10 07:01:28;;;;;;;32.65;19.75;;;2.50;99.90;;;;;;5080903;28;20044;-51
2021/12/10 07:03:56;;;;;;;30.80;18.65;;;2.50;99.90;;;;;;5080139;28;20040;-49
2021/12/10 07:06:24;;;;;;;31.77;19.77;;;2.50;99.90;;;;;;5080586;28;20086;-49
2021/12/10 07:08:50;;;;;;;28.17;19.27;;;2.50;99.90;;;;;;5080705;28;20040;-48
2021/12/10 07:11:20;;;;;;;31.00;19.35;;;2.50;99.90;;;;;;5080708;28;20572;-49
2021/12/10 07:13:49;;;;;;;33.05;19.17;;;2.40;99.90;;;;;;5080983;28;20488;-49
2021/12/10 07:16:15;;;;;;;32.03;18.90;;;2.50;99.90;;;;;;5080112;28;20079;-50
2021/12/10 07:18:42;;;;;;;26.83;17.02;;;2.50;99.90;;;;;;5080789;28;20032;-49
2021/12/10 07:21:08;;;;;;;25.40;17.75;;;2.40;99.90;;;;;;5080047;28;20037;-49
2021/12/10 07:23:35;;;;;;;27.73;16.48;;;2.40;99.90;;;;;;5080358;28;20053;-51
2021/12/10 07:26:01;;;;;;;25.38;16.27;;;2.40;99.90;;;;;;5080604;28;20041;-52
2021/12/10 07:28:26;;;;;;;26.63;16.45;;;2.40;99.90;;;;;;5080193;28;20676;-49
2021/12/10 07:30:52;;;;;;;25.45;15.38;;;2.40;99.90;;;;;;5080800;28;20040;-52
2021/12/10 07:33:18;;;;;;;26.35;16.10;;;2.40;99.90;;;;;;5080078;28;20029;-51
2021/12/10 07:35:46;;;;;;;25.13;15.43;;;2.40;99.90;;;;;;5079540;28;20048;-52
2021/12/10 07:38:12;;;;;;;24.00;15.20;;;2.40;99.90;;;;;;5078875;28;20718;-52
2021/12/10 07:40:38;;;;;;;25.40;15.35;;;2.40;99.90;;;;;;5079633;28;20096;-49
2021/12/10 07:43:08;;;;;;;28.30;15.02;;;2.40;99.90;;;;;;5079479;28;20029;-49
2021/12/10 07:45:35;;;;;;;21.83;13.55;;;2.30;99.90;;;;;;5079822;28;20056;-51
2021/12/10 07:48:07;;;;;;;21.27;13.35;;;2.40;99.90;;;;;;5080360;28;20095;-53
2021/12/10 07:50:35;;;;;;;24.25;14.40;;;2.30;99.90;;;;;;5081157;28;20492;-51
2021/12/10 07:53:01;;;;;;;22.92;12.30;;;2.30;99.90;;;;;;5100438;28;20419;-50
2021/12/10 07:55:32;;;;;;;24.55;12.38;;;2.30;99.90;;;;;;5098096;28;20130;-50
2021/12/10 07:57:58;;;;;;;21.85;12.35;;;2.30;99.90;;;;;;5100276;28;20055;-49
2021/12/10 08:00:27;;;;;;;21.40;12.18;;;2.30;99.90;;;;;;5100108;28;20808;-49
2021/12/10 08:02:54;;;;;;;21.48;13.02;;;2.20;99.90;;;;;;5099961;28;20048;-51
2021/12/10 08:05:24;;;;;;;24.52;13.32;;;2.30;99.90;;;;;;5100373;28;20128;-50
2021/12/10 08:07:52;;;;;;;24.05;11.73;;;2.20;99.90;;;;;;5099576;28;20056;-53
2021/12/10 08:10:18;;;;;;;26.52;13.98;;;2.30;99.90;;;;;;5100040;28;20542;-51
2021/12/10 08:12:44;;;;;;;22.40;12.88;;;2.30;99.90;;;;;;5099164;28;20052;-49
2021/12/10 08:15:10;;;;;;;25.05;14.68;;;2.30;99.90;;;;;;5099847;28;20032;-52
2021/12/10 08:17:37;;;;;;;25.02;13.70;;;2.20;99.90;;;;;;5099769;28;20048;-52
2021/12/10 08:20:08;;;;;;;20.88;13.05;;;2.30;99.90;;;;;;5099485;28;20072;-50
2021/12/10 08:22:34;;;;;;;21.73;13.82;;;2.30;99.90;;;;;;5099973;28;20046;-49
2021/12/10 08:25:00;;;;;;;20.02;12.48;;;2.30;99.90;;;;;;5099224;28;20044;-48
2021/12/10 08:27:26;;;;;;;23.85;13.88;;;2.30;99.90;;;;;;5099565;28;20043;-51
2021/12/10 08:29:52;;;;;;;29.10;13.45;;;2.30;99.90;;;;;;5099163;28;20040;-52
2021/12/10 08:32:20;;;;;;;24.23;12.90;;;2.30;99.90;;;;;;5099315;28;20705;-52
2021/12/10 08:34:48;;;;;;;22.23;13.60;;;2.30;99.90;;;;;;5099608;28;20036;-49
2021/12/10 08:37:14;;;;;;;24.60;13.77;;;2.30;99.90;;;;;;5098953;28;20052;-48
2021/12/10 08:39:41;;;;;;;21.17;11.82;;;2.30;99.90;;;;;;5098206;28;20511;-53
2021/12/10 08:42:07;;;;;;;19.85;12.27;;;2.40;99.90;;;;;;5098819;28;20054;-49
2021/12/10 08:44:33;;;;;;;20.77;11.48;;;2.40;99.90;;;;;;5099200;28;20056;-48
2021/12/10 08:46:59;;;;;;;19.48;12.05;;;2.40;99.90;;;;;;5098351;28;20067;-51
2021/12/10 08:49:25;;;;;;;17.70;10.15;;;2.40;99.90;;;;;;5099164;28;20131;-51
2021/12/10 08:51:56;;;;;;;20.05;11.73;;;2.40;99.90;;;;;;5086200;28;20048;-49
2021/12/10 08:54:26;;;;;;;21.73;11.70;;;2.70;99.90;;;;;;5078581;28;20044;-52
2021/12/10 08:56:52;;;;;;;17.90;10.65;;;2.50;99.90;;;;;;5078889;28;20045;-57
2021/12/10 08:59:22;;;;;;;21.85;11.30;;;2.50;99.90;;;;;;5077169;28;20071;-50
2021/12/10 09:01:50;;;;;;;19.42;10.18;;;2.60;99.90;;;;;;5078686;28;20036;-51
2021/12/10 09:04:16;;;;;;;17.88;9.35;;;2.70;99.90;;;;;;5078415;28;20059;-52
2021/12/10 09:06:50;;;;;;;17.85;9.93;;;2.60;99.90;;;;;;5077222;28;20056;-50
2021/12/10 09:09:16;;;;;;;16.85;10.18;;;2.70;99.90;;;;;;5077771;28;20044;-50
2021/12/10 09:11:47;;;;;;;17.55;10.05;;;2.70;99.90;;;;;;5078248;28;20067;-53
2021/12/10 09:14:14;;;;;;;15.82;9.85;;;2.70;99.90;;;;;;5078542;28;20087;-53
2021/12/10 09:16:40;;;;;;;17.60;9.40;;;2.80;99.90;;;;;;5077764;28;20091;-52
2021/12/10 09:19:12;;;;;;;19.73;9.77;;;2.80;99.90;;;;;;5078457;28;20489;-52
2021/12/10 09:21:38;;;;;;;17.02;10.23;;;2.90;99.90;;;;;;5076994;28;20047;-52
2021/12/10 09:24:06;;;;;;;18.23;10.00;;;2.90;99.90;;;;;;5078171;28;20551;-50
2021/12/10 09:26:42;;;;;;;14.95;9.48;;;2.90;99.90;;;;;;5078708;28;20044;-52
2021/12/10 09:29:10;;;;;;;19.65;11.35;;;2.90;99.90;;;;;;5077916;28;20052;-49
2021/12/10 09:31:39;;;;;;;17.08;9.10;;;3.00;99.90;;;;;;5078531;28;20033;-51
2021/12/10 09:34:06;;;;;;;16.35;9.82;;;2.90;99.90;;;;;;5076584;28;20480;-51
2021/12/10 09:36:32;;;;;;;18.17;9.57;;;3.00;99.90;;;;;;5078015;28;20056;-51
2021/12/10 09:38:58;;;;;;;17.90;9.32;;;3.00;99.90;;;;;;5078329;28;20048;-49
2021/12/10 09:41:25;;;;;;;15.75;8.75;;;3.10;99.90;;;;;;5078199;28;20045;-52
2021/12/10 09:43:51;;;;;;;16.40;8.60;;;3.10;99.90;;;;;;5078250;28;20505;-51
2021/12/10 09:46:18;;;;;;;17.02;8.68;;;3.10;99.90;;;;;;5077938;28;20447;-49
2021/12/10 09:48:44;;;;;;;18.38;8.88;;;3.10;99.90;;;;;;5076626;28;20818;-49
2021/12/10 09:51:16;;;;;;;18.35;9.98;;;3.10;99.90;;;;;;5084290;28;20852;-53
2021/12/10 09:53:46;;;;;;;24.55;9.25;;;3.10;99.90;;;;;;5098304;28;20044;-50
2021/12/10 09:56:14;;;;;;;15.68;7.85;;;3.20;99.90;;;;;;5098662;28;20047;-53
2021/12/10 09:58:40;;;;;;;14.30;9.00;;;3.30;99.90;;;;;;5098126;28;20099;-50
2021/12/10 10:01:19;;;;;;;14.65;8.38;;;3.30;99.90;;;;;;5102228;28;20044;-52
2021/12/10 10:03:49;;;;;;;15.43;8.32;;;3.30;99.90;;;;;;5101788;28;20048;-49
2021/12/10 10:06:16;;;;;;;17.80;9.35;;;3.40;99.90;;;;;;5102084;28;20056;-52
2021/12/10 10:08:42;;;;;;;15.57;8.80;;;3.40;99.90;;;;;;5102027;28;20032;-50
2021/12/10 10:11:13;;;;;;;16.05;8.60;;;3.40;99.90;;;;;;5101844;28;20032;-47
2021/12/10 10:13:42;;;;;;;14.98;8.23;;;3.50;99.90;;;;;;5102326;28;20051;-50
2021/12/10 10:16:09;;;;;;;14.25;7.65;;;3.50;99.90;;;;;;5101601;28;20048;-52
2021/12/10 10:18:38;;;;;;;15.45;8.15;;;3.60;99.90;;;;;;5102051;28;20044;-50
2021/12/10 10:21:14;;;;;;;14.82;8.23;;;3.60;99.90;;;;;;5101653;28;20040;-51
2021/12/10 10:23:42;;;;;;;13.57;7.72;;;3.70;99.90;;;;;;5101906;28;20040;-49
2021/12/10 10:26:12;;;;;;;15.23;8.20;;;3.70;99.90;;;;;;5102319;28;20044;-48
2021/12/10 10:28:39;;;;;;;14.15;7.40;;;3.70;99.90;;;;;;5101551;28;20040;-50
2021/12/10 10:31:11;;;;;;;15.13;8.98;;;3.70;99.90;;;;;;5100797;28;20053;-49
2021/12/10 10:33:39;;;;;;;15.05;8.27;;;3.80;99.90;;;;;;5101385;28;20111;-52
2021/12/10 10:36:11;;;;;;;14.00;8.10;;;3.80;99.90;;;;;;5101351;28;20100;-53
2021/12/10 10:38:37;;;;;;;;;;;3.90;99.90;;;;;;5102056;28;20068;-49
2021/12/10 10:41:11;;;;;;;15.95;7.22;;;3.90;99.90;;;;;;5101369;28;19920;-49
2021/12/10 10:43:38;;;;;;;14.18;6.97;;;3.90;99.90;;;;;;5101735;28;20101;-50
2021/12/10 10:46:05;;;;;;;12.43;6.65;;;3.90;99.90;;;;;;5101246;28;20578;-48
2021/12/10 10:48:31;;;;;;;14.93;7.43;;;4.00;99.90;;;;;;5101480;28;20055;-51
2021/12/10 10:51:07;;;;;;;16.60;8.10;;;4.00;99.90;;;;;;5095824;28;20071;-51
2021/12/10 10:53:48;;;;;;;12.13;7.97;;;4.00;99.90;;;;;;5079739;28;20048;-50
2021/12/10 10:56:19;;;;;;;14.20;6.72;;;4.00;99.90;;;;;;5081320;28;20044;-52
2021/12/10 10:58:55;;;;;;;12.13;6.75;;;4.00;99.90;;;;;;5080606;28;20033;-52
2021/12/10 11:01:28;;;;;;;11.98;6.88;;;4.10;99.90;;;;;;5079894;28;20138;-53
2021/12/10 11:04:02;;;;;;;12.45;7.05;;;4.10;99.90;;;;;;5080393;28;20055;-49
2021/12/10 11:06:33;;;;;;;10.55;6.53;;;4.20;99.90;;;;;;5080908;28;20158;-50
2021/12/10 11:09:18;;;;;;;14.63;6.80;;;4.10;99.90;;;;;;5081117;28;20040;-49
2021/12/10 11:11:53;;;;;;;13.40;6.90;;;4.10;99.90;;;;;;5080457;28;20072;-50
2021/12/10 11:14:23;;;;;;;13.35;6.88;;;4.10;99.90;;;;;;5080543;28;20052;-52
2021/12/10 11:16:52;;;;;;;13.85;7.18;;;4.10;99.90;;;;;;5080098;28;20055;-54
2021/12/10 11:19:27;;;;;;;11.75;7.03;;;4.10;99.90;;;;;;5080540;28;20571;-52
2021/12/10 11:21:55;;;;;;;13.57;6.60;;;4.10;99.90;;;;;;5080885;28;20044;-52
2021/12/10 11:24:23;;;;;;;13.23;7.30;;;4.10;99.90;;;;;;5080167;28;20040;-52
2021/12/10 11:27:03;;;;;;;11.85;6.65;;;4.10;99.90;;;;;;5080797;28;20072;-52
2021/12/10 11:29:40;;;;;;;12.38;6.70;;;4.20;99.90;;;;;;5079957;28;20041;-52
2021/12/10 11:32:26;;;;;;;13.57;6.47;;;4.30;99.90;;;;;;5080245;28;20105;-52
2021/12/10 11:34:57;;;;;;;13.50;6.20;;;4.30;99.90;;;;;;5080128;28;20048;-49
2021/12/10 11:37:55;;;;;;;11.50;6.38;;;4.30;99.90;;;;;;5079764;28;20040;-51
2021/12/10 11:40:27;;;;;;;13.05;6.63;;;4.30;99.90;;;;;;5064181;28;20077;-52
2021/12/10 11:42:59;;;;;;;;;;;4.40;99.90;;;;;;5080566;28;20488;-49
2021/12/10 11:45:33;;;;;;;12.80;6.55;;;4.50;99.90;;;;;;5079837;28;19977;-48
2021/12/10 11:48:10;;;;;;;14.13;6.28;;;4.50;99.90;;;;;;5080354;28;20056;-53
2021/12/10 11:50:42;;;;;;;12.20;7.38;;;4.60;99.90;;;;;;5081659;28;20040;-49
2021/12/10 11:53:13;;;;;;;12.50;6.28;;;4.50;99.90;;;;;;5100311;28;20089;-51
2021/12/10 11:55:55;;;;;;;10.20;6.28;;;4.50;99.90;;;;;;5099957;28;20036;-53
2021/12/10 11:58:21;;;;;;;13.60;6.78;;;4.50;99.90;;;;;;5098694;28;20113;-52
2021/12/10 12:00:47;;;;;;;14.77;6.28;;;4.50;99.90;;;;;;5100543;28;20032;-50
2021/12/10 12:03:13;;;;;;;12.90;6.78;;;4.50;99.90;;;;;;5099725;28;20055;-54
2021/12/10 12:05:42;;;;;;;11.80;5.75;;;4.60;99.90;;;;;;5099980;28;20040;-49
2021/12/10 12:08:14;;;;;;;12.43;6.38;;;4.60;99.90;;;;;;5099485;28;20047;-52
2021/12/10 12:10:56;;;;;;;12.65;5.95;;;4.60;99.90;;;;;;5099798;28;20063;-53
2021/12/10 12:13:29;;;;;;;11.25;5.55;;;4.70;99.90;;;;;;5099932;28;20048;-53
2021/12/10 12:16:02;;;;;;;13.23;5.80;;;4.70;99.90;;;;;;5097696;28;20044;-50
2021/12/10 12:18:42;;;;;;;12.95;6.20;;;4.60;99.90;;;;;;5099652;28;20040;-51
2021/12/10 12:27:06;;;;;;;11.27;5.28;;;4.70;99.90;;;;;;5099858;28;20662;-50
2021/12/10 12:29:37;;;;;;;12.45;6.15;;;4.70;99.90;;;;;;5098940;28;20062;-54
2021/12/10 12:32:20;;;;;;;13.98;5.43;;;4.70;99.90;;;;;;5098325;28;20047;-52
2021/12/10 12:34:47;;;;;;;11.65;5.28;;;4.60;99.90;;;;;;5099872;28;20334;-51
2021/12/10 12:37:16;;;;;;;10.25;5.07;;;4.60;99.90;;;;;;5097569;28;20036;-52
2021/12/10 12:39:58;;;;;;;14.13;5.15;;;4.60;99.90;;;;;;5097961;28;20115;-52
2021/12/10 12:42:30;;;;;;;11.70;4.85;;;4.60;99.90;;;;;;5098917;28;20055;-49
2021/12/10 12:45:03;;;;;;;10.00;4.63;;;4.60;99.90;;;;;;5099177;28;20039;-49
2021/12/10 12:47:33;;;;;;;9.15;5.50;;;4.50;99.90;;;;;;5098966;28;20062;-50
2021/12/10 12:50:00;;;;;;;9.68;4.90;;;4.50;99.90;;;;;;5098973;28;20578;-49
2021/12/10 12:52:34;;;;;;;11.77;5.07;;;4.50;99.90;;;;;;5081882;28;20036;-52
2021/12/10 12:55:45;;;;;;;10.80;4.57;;;4.50;99.90;;;;;;5076877;28;20106;-51
2021/12/10 12:58:11;;;;;;;10.68;4.55;;;4.40;99.90;;;;;;5058331;28;20087;-53
2021/12/10 13:00:46;;;;;;;11.25;4.75;;;4.50;99.90;;;;;;5077696;28;20040;-52
2021/12/10 13:03:17;;;;;;;10.10;4.25;;;4.40;99.90;;;;;;5078490;28;20044;-49
2021/12/10 13:05:59;;;;;;;10.23;4.60;;;4.50;99.90;;;;;;5078736;28;20041;-53